Time;durP1;ratioP1;P1;durP2;ratioP2;P2;SDS_P1;SDS_P2;PMS_P1;PMS_P2;Temp;Humidity;BMP_temperature;BMP_pressure;BME280_temperature;BME280_humidity;BME280_pressure;Samples;Min_cycle;Max_cycle;Signal;HPM_P1;HPM_P2
2023/01/02 00:00:45;;;;;;;10.67;8.20;;;;;;;;;;5025963;28;20230;-82
2023/01/02 00:03:13;;;;;;;16.60;10.97;;;;;;;;;;5037671;28;20308;-83
2023/01/02 00:05:42;;;;;;;17.63;10.97;;;;;;;;;;5036383;28;20202;-83
2023/01/02 00:08:10;;;;;;;15.33;9.13;;;;;;;;;;5019374;28;20190;-82
2023/01/02 00:10:39;;;;;;;20.10;12.93;;;;;;;;;;5044989;28;20206;-82
2023/01/02 00:13:07;;;;;;;17.00;11.80;;;;;;;;;;5025843;28;20210;-83
2023/01/02 00:15:35;;;;;;;23.10;15.70;;;;;;;;;;5038414;28;20192;-83
2023/01/02 00:18:05;;;;;;;25.40;15.97;;;;;;;;;;5036892;28;20225;-83
2023/01/02 00:20:34;;;;;;;23.30;12.50;;;;;;;;;;5037987;28;20263;-83
2023/01/02 00:23:02;;;;;;;24.23;15.23;;;;;;;;;;5051584;28;20203;-83
2023/01/02 00:25:33;;;;;;;35.43;24.03;;;;;;;;;;5028399;28;20272;-83
2023/01/02 00:28:02;;;;;;;29.57;20.33;;;;;;;;;;5041918;28;20204;-83
2023/01/02 00:30:30;;;;;;;34.47;19.27;;;;;;;;;;5054847;28;20201;-83
2023/01/02 00:33:07;;;;;;;35.60;22.53;;;;;;;;;;5047745;28;20195;-83
2023/01/02 00:35:38;;;;;;;30.70;19.63;;;;;;;;;;5018545;28;20206;-83
2023/01/02 00:38:06;;;;;;;28.97;18.77;;;;;;;;;;5035562;28;20219;-83
2023/01/02 00:40:35;;;;;;;29.03;18.30;;;;;;;;;;5031227;28;20219;-83
2023/01/02 00:43:03;;;;;;;27.77;17.90;;;;;;;;;;5034496;28;20290;-83
2023/01/02 00:45:31;;;;;;;28.33;17.27;;;;;;;;;;5033622;28;20256;-83
2023/01/02 00:48:00;;;;;;;64.00;17.10;;;;;;;;;;5054293;28;20205;-83
2023/01/02 00:50:29;;;;;;;28.20;19.53;;;;;;;;;;5037258;28;20241;-83
2023/01/02 00:52:58;;;;;;;30.33;18.10;;;;;;;;;;5027881;28;20203;-83
2023/01/02 00:55:26;;;;;;;31.10;18.37;;;;;;;;;;5034140;28;20229;-83
2023/01/02 00:57:54;;;;;;;16.23;11.23;;;;;;;;;;5050622;28;20230;-83
2023/01/02 01:00:23;;;;;;;28.90;20.57;;;;;;;;;;5052171;28;20321;-83
2023/01/02 01:02:55;;;;;;;21.47;13.80;;;;;;;;;;5037072;28;20194;-83
2023/01/02 01:05:24;;;;;;;30.33;21.10;;;;;;;;;;5019972;28;20203;-83
2023/01/02 01:07:54;;;;;;;23.60;19.17;;;;;;;;;;5030057;28;20217;-83
2023/01/02 01:10:22;;;;;;;28.70;20.20;;;;;;;;;;5053382;28;20229;-83
2023/01/02 01:12:51;;;;;;;28.50;14.57;;;;;;;;;;5037075;28;20307;-83
2023/01/02 01:15:19;;;;;;;28.53;14.67;;;;;;;;;;5024835;28;20232;-83
2023/01/02 01:17:48;;;;;;;24.90;16.63;;;;;;;;;;5023619;28;20203;-82
2023/01/02 01:20:16;;;;;;;17.17;12.00;;;;;;;;;;5029227;28;20207;-83
2023/01/02 01:22:44;;;;;;;26.27;19.53;;;;;;;;;;5049540;28;20270;-82
2023/01/02 01:25:14;;;;;;;21.73;14.27;;;;;;;;;;5046171;28;20225;-82
2023/01/02 01:27:42;;;;;;;22.57;14.20;;;;;;;;;;5030692;28;20305;-82
2023/01/02 01:30:12;;;;;;;23.77;16.60;;;;;;;;;;5027158;28;20210;-82
2023/01/02 01:32:40;;;;;;;22.00;13.80;;;;;;;;;;5053095;28;20252;-83
2023/01/02 01:35:09;;;;;;;24.50;15.93;;;;;;;;;;5054609;28;20577;-83
2023/01/02 01:37:38;;;;;;;23.83;14.17;;;;;;;;;;5036232;28;20221;-83
2023/01/02 01:40:07;;;;;;;24.50;14.30;;;;;;;;;;5042992;28;20207;-83
2023/01/02 01:42:37;;;;;;;11.93;8.90;;;;;;;;;;5035314;28;20222;-83
2023/01/02 01:45:12;;;;;;;13.17;7.40;;;;;;;;;;5024731;28;20237;-83
2023/01/02 01:47:42;;;;;;;17.90;12.63;;;;;;;;;;5041012;28;20216;-83
2023/01/02 01:50:12;;;;;;;15.90;13.63;;;;;;;;;;5022989;28;20294;-83
2023/01/02 01:52:42;;;;;;;18.70;15.23;;;;;;;;;;5036344;28;20204;-83
2023/01/02 01:55:13;;;;;;;6.57;5.90;;;;;;;;;;5035607;28;20225;-83
2023/01/02 01:57:45;;;;;;;14.10;7.57;;;;;;;;;;5036270;28;20194;-83
2023/01/02 02:00:14;;;;;;;8.43;6.43;;;;;;;;;;5036140;28;20241;-83
2023/01/02 02:02:44;;;;;;;9.10;7.30;;;;;;;;;;5043877;28;20258;-83
2023/01/02 02:05:16;;;;;;;10.53;6.33;;;;;;;;;;5033752;28;20282;-83
2023/01/02 02:07:49;;;;;;;6.20;4.27;;;;;;;;;;5042739;28;20232;-83
2023/01/02 02:10:17;;;;;;;4.10;3.00;;;;;;;;;;5042726;28;20199;-83
2023/01/02 02:12:47;;;;;;;13.57;8.87;;;;;;;;;;5029129;28;20206;-83
2023/01/02 02:15:18;;;;;;;13.63;9.87;;;;;;;;;;5033628;28;20271;-83
2023/01/02 02:18:00;;;;;;;6.33;4.50;;;;;;;;;;5025490;28;20207;-83
2023/01/02 02:20:36;;;;;;;5.93;4.43;;;;;;;;;;5038299;28;20228;-83
2023/01/02 02:23:23;;;;;;;10.27;5.33;;;;;;;;;;5041809;28;20206;-83
2023/01/02 02:26:01;;;;;;;6.67;4.33;;;;;;;;;;5049379;28;20202;-83
2023/01/02 02:28:47;;;;;;;7.67;4.70;;;;;;;;;;5035873;28;20262;-83
2023/01/02 02:31:20;;;;;;;12.83;9.73;;;;;;;;;;5022473;28;20194;-83
2023/01/02 02:33:51;;;;;;;12.77;8.60;;;;;;;;;;5030723;28;20198;-83
2023/01/02 02:36:22;;;;;;;16.70;10.77;;;;;;;;;;5047130;28;20211;-83
2023/01/02 02:38:56;;;;;;;5.17;3.70;;;;;;;;;;5025264;28;20202;-83
2023/01/02 02:41:31;;;;;;;18.50;12.83;;;;;;;;;;5035446;28;20194;-83
2023/01/02 02:44:04;;;;;;;13.47;10.60;;;;;;;;;;5024242;28;20202;-83
2023/01/02 02:46:38;;;;;;;13.70;11.83;;;;;;;;;;5046319;28;20252;-83
2023/01/02 02:49:09;;;;;;;17.60;15.73;;;;;;;;;;5029078;28;20390;-83
2023/01/02 02:51:39;;;;;;;13.97;8.43;;;;;;;;;;5030065;28;20206;-82
2023/01/02 02:54:13;;;;;;;10.30;7.60;;;;;;;;;;5027747;28;20191;-83
2023/01/02 02:56:42;;;;;;;12.10;8.07;;;;;;;;;;5042143;28;20221;-83
2023/01/02 02:59:11;;;;;;;8.23;5.93;;;;;;;;;;5035367;28;20229;-83
2023/01/02 03:01:41;;;;;;;10.60;6.60;;;;;;;;;;5034991;28;20202;-83
2023/01/02 03:04:16;;;;;;;7.87;4.57;;;;;;;;;;5035450;28;20206;-82
2023/01/02 03:06:49;;;;;;;4.23;2.47;;;;;;;;;;5029365;28;20199;-82
2023/01/02 03:09:19;;;;;;;2.37;1.80;;;;;;;;;;5015205;28;20253;-82
2023/01/02 03:11:55;;;;;;;8.47;5.67;;;;;;;;;;5019610;28;20217;-83
2023/01/02 03:14:26;;;;;;;4.87;3.97;;;;;;;;;;5030782;28;20201;-83
2023/01/02 03:17:00;;;;;;;8.03;6.13;;;;;;;;;;5053155;28;20240;-83
2023/01/02 03:19:31;;;;;;;5.70;4.57;;;;;;;;;;5018565;28;20269;-83
2023/01/02 03:22:02;;;;;;;5.47;2.80;;;;;;;;;;5033711;28;20253;-83
2023/01/02 03:24:30;;;;;;;14.60;11.43;;;;;;;;;;5030638;28;20194;-83
2023/01/02 03:27:02;;;;;;;5.37;3.90;;;;;;;;;;5056494;28;20233;-83
2023/01/02 03:29:32;;;;;;;9.70;6.67;;;;;;;;;;5069568;28;20202;-82
2023/01/02 03:32:02;;;;;;;9.57;7.67;;;;;;;;;;5044674;28;20225;-83
2023/01/02 03:34:31;;;;;;;9.47;6.73;;;;;;;;;;5037810;28;20233;-83
2023/01/02 03:37:07;;;;;;;6.63;4.83;;;;;;;;;;5026218;28;20226;-83
2023/01/02 03:39:39;;;;;;;5.83;3.40;;;;;;;;;;5019751;28;20244;-83
2023/01/02 03:42:09;;;;;;;3.60;2.90;;;;;;;;;;5064872;28;20235;-82
2023/01/02 03:44:40;;;;;;;2.83;2.60;;;;;;;;;;5056276;28;20268;-82
2023/01/02 03:47:17;;;;;;;2.93;2.60;;;;;;;;;;5022538;28;20199;-82
2023/01/02 03:49:48;;;;;;;4.77;3.43;;;;;;;;;;5043841;28;20245;-82
2023/01/02 03:52:17;;;;;;;2.73;2.07;;;;;;;;;;5049542;28;20203;-82
2023/01/02 03:54:53;;;;;;;2.87;2.57;;;;;;;;;;5032252;28;20230;-82
2023/01/02 03:57:27;;;;;;;4.40;3.57;;;;;;;;;;5019316;28;20293;-82
2023/01/02 04:00:01;;;;;;;2.33;2.13;;;;;;;;;;5036282;28;20257;-82
2023/01/02 04:02:33;;;;;;;2.77;2.50;;;;;;;;;;5019009;28;20202;-82
2023/01/02 04:05:05;;;;;;;8.50;6.00;;;;;;;;;;5040725;28;20201;-82
2023/01/02 04:07:37;;;;;;;8.37;6.50;;;;;;;;;;5035180;28;20203;-82
2023/01/02 04:10:06;;;;;;;10.80;5.87;;;;;;;;;;5055346;28;20229;-82
2023/01/02 04:12:37;;;;;;;3.73;3.27;;;;;;;;;;5037554;28;20252;-82
2023/01/02 04:15:08;;;;;;;5.97;4.93;;;;;;;;;;5032613;28;20197;-81
2023/01/02 04:17:40;;;;;;;2.23;2.03;;;;;;;;;;5054995;28;20206;-81
2023/01/02 04:20:11;;;;;;;3.10;2.47;;;;;;;;;;5030320;28;20237;-81
2023/01/02 04:22:40;;;;;;;6.83;4.30;;;;;;;;;;5021554;28;20209;-81
2023/01/02 04:25:12;;;;;;;10.67;7.43;;;;;;;;;;5030866;28;20292;-81
2023/01/02 04:27:43;;;;;;;2.57;2.17;;;;;;;;;;5034740;28;20208;-81
2023/01/02 04:30:12;;;;;;;3.03;2.73;;;;;;;;;;5038429;28;20194;-81
2023/01/02 04:32:43;;;;;;;6.37;5.50;;;;;;;;;;5051166;28;20281;-80
2023/01/02 04:35:13;;;;;;;5.03;3.60;;;;;;;;;;5030327;28;20198;-80
2023/01/02 04:37:43;;;;;;;3.93;3.47;;;;;;;;;;5037117;28;20202;-80
2023/01/02 04:40:13;;;;;;;0.93;0.93;;;;;;;;;;5024837;28;20207;-80
2023/01/02 04:42:41;;;;;;;1.40;1.17;;;;;;;;;;5055662;28;20212;-80
2023/01/02 04:45:10;;;;;;;2.80;1.07;;;;;;;;;;5053991;28;20202;-80
2023/01/02 04:47:38;;;;;;;1.13;1.13;;;;;;;;;;5038191;28;20202;-80
2023/01/02 04:50:09;;;;;;;0.67;0.67;;;;;;;;;;5037797;28;20225;-80
2023/01/02 04:52:37;;;;;;;1.10;1.10;;;;;;;;;;5028531;28;20205;-80
2023/01/02 04:55:07;;;;;;;0.70;0.70;;;;;;;;;;5048521;28;20232;-81
2023/01/02 04:57:35;;;;;;;1.77;1.43;;;;;;;;;;5028143;28;20195;-80
2023/01/02 05:00:04;;;;;;;1.40;1.30;;;;;;;;;;5053681;28;20232;-81
2023/01/02 05:02:35;;;;;;;1.60;1.50;;;;;;;;;;5026244;28;20290;-80
2023/01/02 05:05:03;;;;;;;1.13;1.13;;;;;;;;;;5036507;28;20191;-81
2023/01/02 05:07:34;;;;;;;0.77;0.77;;;;;;;;;;5025594;28;20288;-80
2023/01/02 05:10:03;;;;;;;0.90;0.90;;;;;;;;;;5054649;28;20260;-81
2023/01/02 05:12:34;;;;;;;1.20;1.10;;;;;;;;;;5055063;28;20202;-81
2023/01/02 05:15:03;;;;;;;0.80;0.80;;;;;;;;;;5024633;28;20259;-81
2023/01/02 05:17:35;;;;;;;0.50;0.50;;;;;;;;;;5037307;28;20221;-81
2023/01/02 05:20:04;;;;;;;7.37;2.93;;;;;;;;;;5036899;28;20224;-81
2023/01/02 05:25:19;;;;;;;0.60;0.60;;;;;;;;;;5039627;28;20202;-80
2023/01/02 05:27:48;;;;;;;2.97;1.97;;;;;;;;;;5034791;28;20262;-81
2023/01/02 05:30:16;;;;;;;2.10;2.00;;;;;;;;;;5043166;28;20229;-81
2023/01/02 05:32:44;;;;;;;5.10;3.23;;;;;;;;;;5035911;28;20193;-81
2023/01/02 05:35:13;;;;;;;1.27;1.17;;;;;;;;;;5024916;28;20271;-81
2023/01/02 05:37:41;;;;;;;1.00;1.00;;;;;;;;;;5017525;28;20218;-81
2023/01/02 05:40:10;;;;;;;1.43;1.33;;;;;;;;;;5047745;28;20603;-81
2023/01/02 05:42:40;;;;;;;0.60;0.60;;;;;;;;;;5040479;28;20236;-81
2023/01/02 05:45:09;;;;;;;1.40;1.17;;;;;;;;;;5040891;28;20211;-81
2023/01/02 05:47:37;;;;;;;1.40;1.00;;;;;;;;;;5017242;28;20197;-81
2023/01/02 05:50:06;;;;;;;1.83;1.43;;;;;;;;;;5015649;28;20250;-81
2023/01/02 05:52:34;;;;;;;1.47;1.37;;;;;;;;;;5016762;28;20225;-81
2023/01/02 05:55:10;;;;;;;1.00;1.00;;;;;;;;;;5063292;28;20220;-80
2023/01/02 05:57:40;;;;;;;2.13;1.20;;;;;;;;;;5036445;28;20214;-81
2023/01/02 06:00:09;;;;;;;1.80;1.17;;;;;;;;;;5040667;28;20241;-81
2023/01/02 06:02:37;;;;;;;0.90;0.90;;;;;;;;;;5025076;28;20307;-81
2023/01/02 06:05:06;;;;;;;0.60;0.60;;;;;;;;;;5017318;28;20204;-81
2023/01/02 06:07:35;;;;;;;0.60;0.60;;;;;;;;;;5042083;28;20229;-81
2023/01/02 06:10:03;;;;;;;2.77;0.93;;;;;;;;;;5035423;28;20192;-81
2023/01/02 06:12:32;;;;;;;6.80;1.70;;;;;;;;;;5036481;28;20192;-81
2023/01/02 06:15:01;;;;;;;0.70;0.70;;;;;;;;;;5053168;28;20285;-81
2023/01/02 06:17:30;;;;;;;0.80;0.80;;;;;;;;;;5022548;28;20236;-81
2023/01/02 06:19:58;;;;;;;0.70;0.70;;;;;;;;;;5023535;28;20205;-81
2023/01/02 06:22:26;;;;;;;0.53;0.53;;;;;;;;;;5022963;28;20208;-81
2023/01/02 06:24:55;;;;;;;0.60;0.60;;;;;;;;;;5051873;28;20195;-80
2023/01/02 06:27:23;;;;;;;1.37;1.27;;;;;;;;;;5035523;28;20246;-81
2023/01/02 06:29:51;;;;;;;0.70;0.70;;;;;;;;;;5045830;28;20297;-81
2023/01/02 06:32:21;;;;;;;0.50;0.50;;;;;;;;;;5016313;28;20215;-81
2023/01/02 06:34:50;;;;;;;0.50;0.50;;;;;;;;;;5015992;28;20205;-81
2023/01/02 06:37:18;;;;;;;0.50;0.50;;;;;;;;;;5031346;28;20204;-81
2023/01/02 06:39:47;;;;;;;0.77;0.77;;;;;;;;;;5035924;28;20209;-81
2023/01/02 06:42:15;;;;;;;0.70;0.70;;;;;;;;;;5035612;28;20207;-81
2023/01/02 06:44:43;;;;;;;3.37;1.67;;;;;;;;;;5034911;28;20199;-81
2023/01/02 06:47:12;;;;;;;0.50;0.50;;;;;;;;;;5018995;28;20201;-81
2023/01/02 06:49:41;;;;;;;9.13;2.23;;;;;;;;;;5036907;28;20207;-81
2023/01/02 06:52:10;;;;;;;7.97;1.50;;;;;;;;;;5027918;28;20199;-81
2023/01/02 06:54:38;;;;;;;5.00;1.20;;;;;;;;;;5032863;28;20205;-80
2023/01/02 06:57:07;;;;;;;6.80;1.60;;;;;;;;;;5046849;28;20209;-80
2023/01/02 06:59:35;;;;;;;9.03;1.37;;;;;;;;;;5015526;28;20297;-80
2023/01/02 07:02:03;;;;;;;1.10;1.00;;;;;;;;;;5037814;28;20208;-80
2023/01/02 07:04:32;;;;;;;0.60;0.60;;;;;;;;;;5040939;28;20228;-80
2023/01/02 07:07:02;;;;;;;0.60;0.60;;;;;;;;;;5050922;28;20234;-80
2023/01/02 07:09:30;;;;;;;2.53;1.40;;;;;;;;;;5034705;28;20241;-81
2023/01/02 07:11:59;;;;;;;5.30;1.23;;;;;;;;;;5035549;28;20189;-80
2023/01/02 07:14:27;;;;;;;2.23;1.00;;;;;;;;;;5021973;28;20283;-81
2023/01/02 07:16:55;;;;;;;1.13;0.80;;;;;;;;;;5035071;28;20280;-80
2023/01/02 07:19:24;;;;;;;0.50;0.50;;;;;;;;;;5033685;28;20217;-80
2023/01/02 07:21:52;;;;;;;1.20;1.03;;;;;;;;;;5024286;28;20216;-81
2023/01/02 07:24:22;;;;;;;1.03;0.80;;;;;;;;;;5022546;28;20208;-81
2023/01/02 07:26:50;;;;;;;1.17;1.13;;;;;;;;;;5041876;28;20224;-80
2023/01/02 07:29:19;;;;;;;0.70;0.70;;;;;;;;;;5022407;28;20224;-80
2023/01/02 07:31:47;;;;;;;1.37;1.17;;;;;;;;;;5024209;28;20201;-81
2023/01/02 07:34:16;;;;;;;1.43;1.00;;;;;;;;;;5050871;28;20253;-80
2023/01/02 07:36:44;;;;;;;2.13;1.07;;;;;;;;;;5035098;28;20202;-81
2023/01/02 07:39:12;;;;;;;2.47;1.17;;;;;;;;;;5034955;28;20251;-81
2023/01/02 07:41:42;;;;;;;2.30;1.10;;;;;;;;;;5052223;28;20216;-81
2023/01/02 07:44:11;;;;;;;2.43;0.77;;;;;;;;;;5039968;28;20207;-81
2023/01/02 07:46:39;;;;;;;1.93;1.03;;;;;;;;;;5035042;28;20211;-81
2023/01/02 07:49:07;;;;;;;1.60;0.97;;;;;;;;;;5032712;28;20236;-81
2023/01/02 07:51:36;;;;;;;2.90;1.33;;;;;;;;;;5042591;28;20231;-81
2023/01/02 07:54:04;;;;;;;4.60;1.80;;;;;;;;;;5023306;28;20262;-81
2023/01/02 07:56:32;;;;;;;2.30;0.93;;;;;;;;;;5033174;28;20218;-81
2023/01/02 07:59:02;;;;;;;2.33;1.50;;;;;;;;;;5022937;28;20206;-81
2023/01/02 08:01:31;;;;;;;1.17;1.10;;;;;;;;;;5021106;28;20224;-81
2023/01/02 08:04:00;;;;;;;5.43;1.33;;;;;;;;;;5024317;28;20215;-81
2023/01/02 08:06:29;;;;;;;2.37;1.10;;;;;;;;;;5019270;28;20207;-81
2023/01/02 08:08:57;;;;;;;3.30;1.13;;;;;;;;;;5016383;28;20212;-81
2023/01/02 08:11:25;;;;;;;0.93;0.83;;;;;;;;;;5016033;28;20316;-80
2023/01/02 08:13:54;;;;;;;4.23;1.47;;;;;;;;;;5019021;28;20200;-80
2023/01/02 08:16:24;;;;;;;5.87;1.97;;;;;;;;;;5053916;28;20188;-81
2023/01/02 08:18:54;;;;;;;6.67;2.17;;;;;;;;;;5038529;28;20199;-80
2023/01/02 08:21:23;;;;;;;1.23;1.10;;;;;;;;;;5052439;28;20208;-80
2023/01/02 08:23:51;;;;;;;4.90;2.23;;;;;;;;;;5018577;28;20229;-82
2023/01/02 08:26:20;;;;;;;1.13;1.13;;;;;;;;;;5037528;28;20206;-79
2023/01/02 08:28:48;;;;;;;7.20;2.23;;;;;;;;;;5038074;28;20214;-80
2023/01/02 08:31:17;;;;;;;4.93;1.80;;;;;;;;;;5038235;28;20213;-80
2023/01/02 08:33:47;;;;;;;1.03;1.03;;;;;;;;;;5042629;28;20209;-81
2023/01/02 08:36:16;;;;;;;1.33;1.23;;;;;;;;;;5018866;28;20214;-80
2023/01/02 08:38:44;;;;;;;2.83;1.40;;;;;;;;;;5029735;28;20262;-80
2023/01/02 08:41:14;;;;;;;8.63;2.10;;;;;;;;;;5026345;28;20226;-80
2023/01/02 08:43:42;;;;;;;2.87;0.90;;;;;;;;;;5056741;28;20237;-81
2023/01/02 08:46:11;;;;;;;1.20;1.07;;;;;;;;;;5039973;28;20203;-80
2023/01/02 08:48:39;;;;;;;1.30;1.20;;;;;;;;;;5036189;28;20207;-81
2023/01/02 08:51:09;;;;;;;2.90;1.27;;;;;;;;;;5065584;28;20226;-81
2023/01/02 08:53:37;;;;;;;1.00;1.00;;;;;;;;;;5033856;28;20210;-81
2023/01/02 08:56:19;;;;;;;3.13;1.27;;;;;;;;;;5018068;28;20235;-81
2023/01/02 08:58:50;;;;;;;2.47;2.03;;;;;;;;;;5053729;28;20207;-81
2023/01/02 09:01:20;;;;;;;2.47;2.00;;;;;;;;;;5024262;28;20201;-82
2023/01/02 09:03:49;;;;;;;8.33;3.33;;;;;;;;;;5054943;28;20211;-81
2023/01/02 09:06:19;;;;;;;4.50;2.97;;;;;;;;;;5036700;28;20256;-80
2023/01/02 09:08:51;;;;;;;2.27;1.57;;;;;;;;;;5037613;28;20238;-80
2023/01/02 09:11:20;;;;;;;2.60;1.87;;;;;;;;;;5057511;28;20203;-80
2023/01/02 09:13:49;;;;;;;6.40;2.17;;;;;;;;;;5054018;28;20240;-80
2023/01/02 09:16:17;;;;;;;5.20;1.97;;;;;;;;;;5030453;28;20207;-81
2023/01/02 09:18:46;;;;;;;3.87;2.40;;;;;;;;;;5038622;28;20257;-80
2023/01/02 09:21:14;;;;;;;2.37;1.60;;;;;;;;;;5034628;28;20205;-80
2023/01/02 09:23:44;;;;;;;4.67;1.30;;;;;;;;;;5028787;28;20245;-80
2023/01/02 09:26:13;;;;;;;1.50;0.93;;;;;;;;;;5021602;28;20204;-80
2023/01/02 09:28:41;;;;;;;3.40;3.10;;;;;;;;;;5034745;28;20201;-81
2023/01/02 09:31:11;;;;;;;6.13;1.77;;;;;;;;;;5022686;28;20208;-80
2023/01/02 09:33:40;;;;;;;3.10;1.80;;;;;;;;;;5036948;28;20200;-80
2023/01/02 09:36:10;;;;;;;1.60;1.03;;;;;;;;;;5056680;28;20239;-80
2023/01/02 09:38:38;;;;;;;1.20;0.70;;;;;;;;;;5029256;28;20200;-81
2023/01/02 09:41:09;;;;;;;0.77;0.77;;;;;;;;;;5029639;28;20228;-81
2023/01/02 09:43:41;;;;;;;2.20;1.47;;;;;;;;;;5031282;28;20228;-81
2023/01/02 09:46:25;;;;;;;4.97;2.40;;;;;;;;;;5054194;28;20203;-81
2023/01/02 09:48:54;;;;;;;7.40;1.57;;;;;;;;;;5031883;28;20201;-81
2023/01/02 09:51:23;;;;;;;3.47;1.43;;;;;;;;;;5028751;28;20275;-77
2023/01/02 09:53:51;;;;;;;3.13;1.50;;;;;;;;;;5048523;28;20243;-78
2023/01/02 09:56:22;;;;;;;0.67;0.67;;;;;;;;;;5016902;28;20241;-79
2023/01/02 09:58:59;;;;;;;1.17;1.07;;;;;;;;;;5023818;28;20203;-79
2023/01/02 10:01:31;;;;;;;1.30;1.20;;;;;;;;;;5024449;28;20222;-80
2023/01/02 10:04:03;;;;;;;1.83;1.20;;;;;;;;;;5064767;28;20213;-81
2023/01/02 10:06:34;;;;;;;1.73;1.63;;;;;;;;;;5023030;28;20193;-82
2023/01/02 10:09:07;;;;;;;4.03;1.87;;;;;;;;;;5036255;28;20204;-81
2023/01/02 10:11:40;;;;;;;2.70;2.60;;;;;;;;;;5023148;28;20251;-81
2023/01/02 10:14:12;;;;;;;2.03;1.53;;;;;;;;;;5048673;28;20204;-81
2023/01/02 10:16:51;;;;;;;1.00;1.00;;;;;;;;;;5016688;28;20368;-81
2023/01/02 10:19:22;;;;;;;0.87;0.87;;;;;;;;;;5016342;28;20256;-81
2023/01/02 10:21:53;;;;;;;6.87;2.17;;;;;;;;;;5025626;28;20201;-81
2023/01/02 10:24:24;;;;;;;5.07;1.53;;;;;;;;;;5036099;28;20216;-81
2023/01/02 10:26:54;;;;;;;6.30;2.00;;;;;;;;;;5023359;28;20230;-82
2023/01/02 10:29:28;;;;;;;6.77;1.80;;;;;;;;;;5042258;28;20232;-81
2023/01/02 10:31:59;;;;;;;2.73;0.97;;;;;;;;;;5039692;28;20200;-81
2023/01/02 10:34:31;;;;;;;4.10;1.70;;;;;;;;;;5066750;28;20192;-81
2023/01/02 10:37:00;;;;;;;4.80;1.80;;;;;;;;;;5035406;28;20299;-82
2023/01/02 10:39:35;;;;;;;5.10;1.17;;;;;;;;;;5035432;28;20212;-81
2023/01/02 10:42:05;;;;;;;4.23;1.60;;;;;;;;;;5037373;28;20211;-82
2023/01/02 10:44:34;;;;;;;1.93;1.23;;;;;;;;;;5046464;28;20251;-82
2023/01/02 10:47:12;;;;;;;5.10;3.13;;;;;;;;;;5038065;28;20209;-82
2023/01/02 10:49:41;;;;;;;8.67;3.67;;;;;;;;;;5044279;28;20247;-82
2023/01/02 10:52:14;;;;;;;1.27;0.70;;;;;;;;;;5035201;28;20243;-82
2023/01/02 10:54:50;;;;;;;2.73;1.20;;;;;;;;;;5035362;28;20237;-81
2023/01/02 10:57:35;;;;;;;4.63;1.93;;;;;;;;;;5023946;28;20233;-82
2023/01/02 11:00:07;;;;;;;5.70;1.50;;;;;;;;;;5025395;28;20232;-81
2023/01/02 11:02:37;;;;;;;2.83;1.17;;;;;;;;;;5055157;28;20206;-82
2023/01/02 11:05:08;;;;;;;3.60;1.53;;;;;;;;;;5036298;28;20213;-81
2023/01/02 11:07:38;;;;;;;3.63;1.53;;;;;;;;;;5022812;28;20253;-82
2023/01/02 11:10:21;;;;;;;2.50;2.10;;;;;;;;;;5051350;28;20198;-82
2023/01/02 11:12:51;;;;;;;4.30;1.40;;;;;;;;;;5034096;28;20207;-82
2023/01/02 11:15:29;;;;;;;3.73;2.03;;;;;;;;;;5025266;28;20206;-82
2023/01/02 11:17:58;;;;;;;3.10;1.13;;;;;;;;;;5034645;28;20209;-82
2023/01/02 11:20:28;;;;;;;3.70;1.60;;;;;;;;;;5035446;28;20202;-82
2023/01/02 11:22:58;;;;;;;4.13;1.67;;;;;;;;;;5052545;28;20198;-82
2023/01/02 11:25:27;;;;;;;6.33;1.70;;;;;;;;;;5035129;28;20210;-82
2023/01/02 11:28:01;;;;;;;13.93;3.67;;;;;;;;;;5027568;28;20189;-82
2023/01/02 11:30:33;;;;;;;7.37;2.40;;;;;;;;;;5028607;28;20199;-82
2023/01/02 11:33:03;;;;;;;7.77;2.67;;;;;;;;;;5022965;28;20195;-82
2023/01/02 11:35:37;;;;;;;11.73;3.30;;;;;;;;;;5022098;28;20199;-81
2023/01/02 11:38:12;;;;;;;6.47;3.00;;;;;;;;;;5044230;28;20210;-82
2023/01/02 11:40:51;;;;;;;0.93;0.70;;;;;;;;;;5023786;28;20194;-82
2023/01/02 11:46:15;;;;;;;7.93;2.03;;;;;;;;;;5033158;28;20278;-81
2023/01/02 11:48:43;;;;;;;3.40;1.57;;;;;;;;;;5071363;28;20611;-81
2023/01/02 11:51:16;;;;;;;5.43;1.30;;;;;;;;;;5028174;28;20221;-82
2023/01/02 11:53:46;;;;;;;1.23;1.17;;;;;;;;;;5024271;28;20212;-81
2023/01/02 11:56:17;;;;;;;1.40;0.97;;;;;;;;;;5039099;28;20210;-82
2023/01/02 11:58:48;;;;;;;2.33;1.27;;;;;;;;;;5037771;28;20198;-82
2023/01/02 12:01:19;;;;;;;5.07;1.40;;;;;;;;;;5024921;28;20222;-82
2023/01/02 12:03:48;;;;;;;1.53;1.43;;;;;;;;;;5037976;28;20198;-82
2023/01/02 12:06:18;;;;;;;3.50;2.87;;;;;;;;;;5051008;28;20228;-82
2023/01/02 12:08:58;;;;;;;5.07;2.03;;;;;;;;;;5056335;28;20206;-82
2023/01/02 12:11:31;;;;;;;1.23;1.03;;;;;;;;;;5051506;28;20237;-82
2023/01/02 12:14:08;;;;;;;2.73;2.17;;;;;;;;;;5038435;28;20228;-82
2023/01/02 12:16:41;;;;;;;11.47;3.17;;;;;;;;;;5025514;28;20251;-82
2023/01/02 12:19:16;;;;;;;5.10;2.47;;;;;;;;;;5037404;28;20199;-82
2023/01/02 12:21:47;;;;;;;2.90;1.60;;;;;;;;;;5036096;28;20213;-81
2023/01/02 12:24:26;;;;;;;6.97;2.27;;;;;;;;;;5023869;28;20197;-82
2023/01/02 12:26:59;;;;;;;8.17;2.37;;;;;;;;;;5039453;28;20193;-82
2023/01/02 12:29:34;;;;;;;6.73;2.10;;;;;;;;;;5043781;28;20286;-82
2023/01/02 12:32:34;;;;;;;8.50;2.30;;;;;;;;;;5025235;28;20213;-82
2023/01/02 12:35:07;;;;;;;2.70;1.50;;;;;;;;;;5034645;28;20197;-82
2023/01/02 12:37:41;;;;;;;3.80;1.87;;;;;;;;;;5036710;28;20193;-82
2023/01/02 12:40:28;;;;;;;3.30;1.87;;;;;;;;;;5050908;28;20204;-82
2023/01/02 12:43:02;;;;;;;1.60;1.47;;;;;;;;;;5037990;28;20247;-82
2023/01/02 12:45:35;;;;;;;7.73;1.83;;;;;;;;;;5037563;28;20217;-82
2023/01/02 12:48:13;;;;;;;6.37;4.00;;;;;;;;;;5044203;28;20201;-82
2023/01/02 12:50:50;;;;;;;9.97;1.87;;;;;;;;;;5023798;28;20250;-82
2023/01/02 12:53:30;;;;;;;6.17;2.03;;;;;;;;;;5055452;28;20206;-82
2023/01/02 12:56:03;;;;;;;4.77;2.27;;;;;;;;;;5045434;28;20250;-82
2023/01/02 12:58:37;;;;;;;7.73;2.80;;;;;;;;;;5046040;28;20216;-82
2023/01/02 13:01:14;;;;;;;4.23;1.50;;;;;;;;;;5029309;28;20232;-82
2023/01/02 13:03:46;;;;;;;2.87;1.47;;;;;;;;;;5024222;28;20239;-82
2023/01/02 13:06:15;;;;;;;6.67;1.63;;;;;;;;;;5037142;28;20214;-82
2023/01/02 13:09:07;;;;;;;10.70;2.37;;;;;;;;;;5055155;28;20207;-82
2023/01/02 13:11:38;;;;;;;11.17;2.77;;;;;;;;;;5041612;28;20209;-82
2023/01/02 13:14:07;;;;;;;11.40;2.50;;;;;;;;;;5062984;28;20203;-82
2023/01/02 13:16:37;;;;;;;1.63;1.53;;;;;;;;;;5036384;28;20220;-81
2023/01/02 13:19:12;;;;;;;5.40;1.33;;;;;;;;;;5037283;28;20203;-82
2023/01/02 13:21:44;;;;;;;1.83;1.73;;;;;;;;;;5025487;28;20203;-82
2023/01/02 13:24:15;;;;;;;4.23;1.40;;;;;;;;;;5023957;28;20211;-82
2023/01/02 13:26:44;;;;;;;2.17;0.97;;;;;;;;;;5017709;28;20216;-82
2023/01/02 13:29:29;;;;;;;2.20;1.27;;;;;;;;;;5050626;28;20242;-82
2023/01/02 13:31:58;;;;;;;7.97;2.10;;;;;;;;;;5037098;28;20224;-82
2023/01/02 13:34:28;;;;;;;2.63;1.23;;;;;;;;;;5020166;28;20216;-82
2023/01/02 13:37:02;;;;;;;2.10;1.03;;;;;;;;;;5030433;28;20216;-82
2023/01/02 13:39:32;;;;;;;3.33;1.80;;;;;;;;;;5024461;28;20212;-82
2023/01/02 13:44:51;;;;;;;1.53;1.43;;;;;;;;;;5016638;28;20212;-82
2023/01/02 13:47:22;;;;;;;5.00;1.37;;;;;;;;;;5047446;28;20204;-82
2023/01/02 13:50:04;;;;;;;1.60;1.33;;;;;;;;;;5043699;28;20216;-82
2023/01/02 13:52:33;;;;;;;3.23;1.90;;;;;;;;;;5028724;28;20194;-82
2023/01/02 13:55:12;;;;;;;7.80;2.23;;;;;;;;;;5031271;28;20235;-82
2023/01/02 13:57:41;;;;;;;9.80;1.53;;;;;;;;;;5036562;28;20207;-81
2023/01/02 14:00:24;;;;;;;4.70;1.83;;;;;;;;;;5023259;28;20260;-82
2023/01/02 14:03:07;;;;;;;0.90;0.83;;;;;;;;;;5035877;28;20207;-82
2023/01/02 14:05:54;;;;;;;1.00;1.00;;;;;;;;;;5042683;28;20225;-82
2023/01/02 14:08:26;;;;;;;2.00;2.00;;;;;;;;;;5023698;28;20236;-82
2023/01/02 14:10:58;;;;;;;4.93;1.77;;;;;;;;;;5035249;28;20236;-81
2023/01/02 14:13:38;;;;;;;3.73;1.00;;;;;;;;;;5030198;28;20212;-82
2023/01/02 14:16:21;;;;;;;2.00;2.00;;;;;;;;;;5049655;28;20306;-82
2023/01/02 14:19:04;;;;;;;3.07;1.00;;;;;;;;;;5051430;28;20205;-81
2023/01/02 14:21:33;;;;;;;4.07;1.50;;;;;;;;;;5029403;28;20233;-82
2023/01/02 14:24:04;;;;;;;4.77;1.40;;;;;;;;;;5031139;28;20215;-81
2023/01/02 14:26:52;;;;;;;5.97;2.00;;;;;;;;;;5022230;28;20308;-82
2023/01/02 14:29:21;;;;;;;1.00;0.93;;;;;;;;;;5023491;28;20226;-82
2023/01/02 14:31:50;;;;;;;0.80;0.80;;;;;;;;;;5053195;28;20210;-82
2023/01/02 14:34:23;;;;;;;2.63;1.40;;;;;;;;;;5034600;28;20204;-81
2023/01/02 14:36:52;;;;;;;4.53;1.23;;;;;;;;;;5035837;28;20252;-82
2023/01/02 14:39:24;;;;;;;1.13;1.03;;;;;;;;;;5035704;28;20211;-82
2023/01/02 14:45:00;;;;;;;2.07;1.57;;;;;;;;;;5019200;28;20209;-83
2023/01/02 14:47:33;;;;;;;1.63;1.53;;;;;;;;;;5022807;28;20220;-83
2023/01/02 14:50:03;;;;;;;5.93;2.03;;;;;;;;;;5022336;28;20253;-83
2023/01/02 14:52:34;;;;;;;2.00;1.90;;;;;;;;;;5030058;28;20208;-83
2023/01/02 14:55:07;;;;;;;1.50;1.13;;;;;;;;;;5037095;28;20231;-82
2023/01/02 14:57:38;;;;;;;5.60;1.43;;;;;;;;;;5051354;28;20202;-83
2023/01/02 15:00:13;;;;;;;3.67;1.97;;;;;;;;;;5031584;28;20228;-83
2023/01/02 15:02:43;;;;;;;2.07;1.73;;;;;;;;;;5033466;28;20228;-83
2023/01/02 15:05:14;;;;;;;3.27;2.03;;;;;;;;;;5028876;28;20201;-83
2023/01/02 15:07:46;;;;;;;1.27;1.10;;;;;;;;;;5028555;28;20222;-82
2023/01/02 15:10:17;;;;;;;7.93;2.83;;;;;;;;;;5032984;28;20198;-83
2023/01/02 15:13:05;;;;;;;0.60;0.60;;;;;;;;;;5039641;28;20219;-84